Time;durP1;ratioP1;P1;durP2;ratioP2;P2;SDS_P1;SDS_P2;PMS_P1;PMS_P2;Temp;Humidity;BMP_temperature;BMP_pressure;BME280_temperature;BME280_humidity;BME280_pressure;Samples;Min_cycle;Max_cycle;Signal;HPM_P1;HPM_P2
2021/05/28 00:00:28;;;;;;;3.70;1.50;;;;;;;;;;4992008;28;20035;-78
2021/05/28 00:02:54;;;;;;;5.00;1.47;;;;;;;;;;4991433;28;20038;-78
2021/05/28 00:05:20;;;;;;;1.63;1.53;;;;;;;;;;4993273;28;20026;-79
2021/05/28 00:07:45;;;;;;;1.83;1.20;;;;;;;;;;4993054;28;20022;-79
2021/05/28 00:10:11;;;;;;;4.13;1.70;;;;;;;;;;4991713;28;20026;-79
2021/05/28 00:12:37;;;;;;;1.20;1.10;;;;;;;;;;4991844;28;20034;-78
2021/05/28 00:15:09;;;;;;;1.60;1.50;;;;;;;;;;4992698;28;20022;-78
2021/05/28 00:17:34;;;;;;;3.05;1.58;;;;;;;;;;4991633;28;20046;-79
2021/05/28 00:20:04;;;;;;;2.97;1.60;;;;;;;;;;4992947;28;20133;-79
2021/05/28 00:22:29;;;;;;;2.13;1.50;;;;;;;;;;4992119;28;20490;-79
2021/05/28 00:24:55;;;;;;;1.60;1.47;;;;;;;;;;4991580;28;20030;-78
2021/05/28 00:27:20;;;;;;;1.60;1.30;;;;;;;;;;4990472;28;20029;-78
2021/05/28 00:29:47;;;;;;;1.90;1.70;;;;;;;;;;4991292;28;20030;-78
2021/05/28 00:32:13;;;;;;;1.77;1.33;;;;;;;;;;4992504;28;20034;-77
2021/05/28 00:34:38;;;;;;;1.60;1.40;;;;;;;;;;4991744;28;20442;-78
2021/05/28 00:37:04;;;;;;;1.50;1.40;;;;;;;;;;4992573;28;20105;-76
2021/05/28 00:39:29;;;;;;;1.87;1.60;;;;;;;;;;4992798;28;20077;-77
2021/05/28 00:41:55;;;;;;;1.77;1.43;;;;;;;;;;4992307;28;20046;-77
2021/05/28 00:44:22;;;;;;;2.50;1.80;;;;;;;;;;4991376;28;20085;-78
2021/05/28 00:46:48;;;;;;;1.50;1.40;;;;;;;;;;4992575;28;20054;-77
2021/05/28 00:49:14;;;;;;;3.90;1.73;;;;;;;;;;4991003;28;20481;-78
2021/05/28 00:51:39;;;;;;;1.40;1.30;;;;;;;;;;4992588;28;20037;-78
2021/05/28 00:54:05;;;;;;;4.77;1.43;;;;;;;;;;4992223;28;20113;-79
2021/05/28 00:56:31;;;;;;;1.83;1.47;;;;;;;;;;4992120;28;20073;-78
2021/05/28 00:59:02;;;;;;;2.40;1.50;;;;;;;;;;4990609;28;20027;-77
2021/05/28 01:01:28;;;;;;;2.03;1.30;;;;;;;;;;4992498;28;20029;-77
2021/05/28 01:03:53;;;;;;;1.60;1.40;;;;;;;;;;4991013;28;20065;-78
2021/05/28 01:06:19;;;;;;;3.67;1.60;;;;;;;;;;4993117;28;20093;-78
2021/05/28 01:08:45;;;;;;;2.00;1.73;;;;;;;;;;4991499;28;20030;-78
2021/05/28 01:11:10;;;;;;;2.53;1.40;;;;;;;;;;4990625;28;20030;-77
2021/05/28 01:13:36;;;;;;;6.17;1.60;;;;;;;;;;4992256;28;20026;-79
2021/05/28 01:16:01;;;;;;;3.77;2.00;;;;;;;;;;4992939;28;20033;-78
2021/05/28 01:18:27;;;;;;;3.37;1.77;;;;;;;;;;4994560;28;20029;-78
2021/05/28 01:20:52;;;;;;;2.80;1.43;;;;;;;;;;4992583;28;20310;-78
2021/05/28 01:23:18;;;;;;;3.67;1.50;;;;;;;;;;4991379;28;20376;-77
2021/05/28 01:25:45;;;;;;;2.37;1.60;;;;;;;;;;4991468;28;20030;-76
2021/05/28 01:28:10;;;;;;;2.57;1.50;;;;;;;;;;4990067;28;20038;-77
2021/05/28 01:30:37;;;;;;;4.03;1.90;;;;;;;;;;4990782;28;20118;-77
2021/05/28 01:33:03;;;;;;;1.67;1.57;;;;;;;;;;4991998;28;20117;-78
2021/05/28 01:35:28;;;;;;;1.77;1.50;;;;;;;;;;4992229;28;20113;-76
2021/05/28 01:37:54;;;;;;;1.60;1.30;;;;;;;;;;4990067;28;20134;-77
2021/05/28 01:40:21;;;;;;;2.17;1.60;;;;;;;;;;4991280;28;20034;-77
2021/05/28 01:42:47;;;;;;;2.37;1.60;;;;;;;;;;4990012;28;20084;-77
2021/05/28 01:45:13;;;;;;;1.90;1.60;;;;;;;;;;4991374;28;20032;-78
2021/05/28 01:47:39;;;;;;;4.70;1.97;;;;;;;;;;4991646;28;20030;-77
2021/05/28 01:50:08;;;;;;;2.40;2.20;;;;;;;;;;4991874;28;20221;-77
2021/05/28 01:52:33;;;;;;;2.70;1.80;;;;;;;;;;4990122;28;20034;-76
2021/05/28 01:54:59;;;;;;;10.37;1.83;;;;;;;;;;4991017;28;20031;-76
2021/05/28 01:57:25;;;;;;;3.20;1.87;;;;;;;;;;4989709;28;20096;-77
2021/05/28 01:59:50;;;;;;;1.60;1.47;;;;;;;;;;4991199;28;20034;-78
2021/05/28 02:02:16;;;;;;;2.07;1.80;;;;;;;;;;4989335;28;20031;-78
2021/05/28 02:04:42;;;;;;;2.37;2.00;;;;;;;;;;4989448;28;20038;-78
2021/05/28 02:07:09;;;;;;;2.27;1.90;;;;;;;;;;4990617;28;20026;-79
2021/05/28 02:09:35;;;;;;;2.53;1.80;;;;;;;;;;4991009;28;20049;-78
2021/05/28 02:12:00;;;;;;;1.53;1.43;;;;;;;;;;4973295;28;20395;-79
2021/05/28 02:14:27;;;;;;;1.87;1.43;;;;;;;;;;4989680;28;20125;-78
2021/05/28 02:16:53;;;;;;;2.80;1.70;;;;;;;;;;4989334;28;20372;-76
2021/05/28 02:19:20;;;;;;;2.20;1.77;;;;;;;;;;4990600;28;20313;-78
2021/05/28 02:21:45;;;;;;;2.80;1.70;;;;;;;;;;4990693;28;20034;-78
2021/05/28 02:24:14;;;;;;;3.03;1.90;;;;;;;;;;4989570;28;20083;-78
2021/05/28 02:26:40;;;;;;;3.20;1.80;;;;;;;;;;4989893;28;20022;-77
2021/05/28 02:29:05;;;;;;;7.27;2.10;;;;;;;;;;4989583;28;20045;-76
2021/05/28 02:31:31;;;;;;;5.33;2.33;;;;;;;;;;4989266;28;20031;-77
2021/05/28 02:33:56;;;;;;;2.90;2.20;;;;;;;;;;4989484;28;20037;-77
2021/05/28 02:36:22;;;;;;;3.20;1.97;;;;;;;;;;4988938;28;20027;-79
2021/05/28 02:38:47;;;;;;;1.83;1.67;;;;;;;;;;4988997;28;20041;-78
2021/05/28 02:41:13;;;;;;;2.63;1.97;;;;;;;;;;4972321;28;20406;-77
2021/05/28 02:43:39;;;;;;;2.10;1.90;;;;;;;;;;4990616;28;20026;-77
2021/05/28 02:46:05;;;;;;;2.27;2.07;;;;;;;;;;4990273;28;20059;-77
2021/05/28 02:48:30;;;;;;;3.43;1.83;;;;;;;;;;4990411;28;20030;-78
2021/05/28 02:50:58;;;;;;;2.07;1.83;;;;;;;;;;4989924;28;20041;-77
2021/05/28 02:53:23;;;;;;;2.93;1.67;;;;;;;;;;4988677;28;20483;-78
2021/05/28 02:55:49;;;;;;;2.07;1.87;;;;;;;;;;4988761;28;20049;-77
2021/05/28 02:58:14;;;;;;;2.00;1.90;;;;;;;;;;4990540;28;20048;-79
2021/05/28 03:00:40;;;;;;;4.10;2.00;;;;;;;;;;4990543;28;20418;-78
2021/05/28 03:03:06;;;;;;;2.50;1.80;;;;;;;;;;4988650;28;20152;-78
2021/05/28 03:05:31;;;;;;;2.23;2.00;;;;;;;;;;4990733;28;20057;-77
2021/05/28 03:07:57;;;;;;;2.97;2.43;;;;;;;;;;4990179;28;20486;-78
2021/05/28 03:10:22;;;;;;;5.33;2.60;;;;;;;;;;4989875;28;20062;-78
2021/05/28 03:12:48;;;;;;;3.47;2.60;;;;;;;;;;4989056;28;20069;-76
2021/05/28 03:15:14;;;;;;;3.93;2.70;;;;;;;;;;4988777;28;20534;-78
2021/05/28 03:17:43;;;;;;;4.80;2.40;;;;;;;;;;4992204;28;20098;-78
2021/05/28 03:20:19;;;;;;;4.57;2.10;;;;;;;;;;4989809;28;20026;-78
2021/05/28 03:22:45;;;;;;;4.00;2.30;;;;;;;;;;4988702;28;20034;-78
2021/05/28 03:25:12;;;;;;;3.20;2.43;;;;;;;;;;4989874;28;20038;-77
2021/05/28 03:27:38;;;;;;;3.00;2.07;;;;;;;;;;4988513;28;20482;-75
2021/05/28 03:30:07;;;;;;;2.47;2.17;;;;;;;;;;4989629;28;20064;-75
2021/05/28 03:32:33;;;;;;;2.87;2.33;;;;;;;;;;4988684;28;20034;-78
2021/05/28 03:34:59;;;;;;;3.03;2.50;;;;;;;;;;4989966;28;20030;-79
2021/05/28 03:37:24;;;;;;;2.40;1.97;;;;;;;;;;4989518;28;20485;-78
2021/05/28 03:39:51;;;;;;;3.37;2.83;;;;;;;;;;4988627;28;20038;-78
2021/05/28 03:42:17;;;;;;;2.60;2.40;;;;;;;;;;4988124;28;20097;-78
2021/05/28 03:44:43;;;;;;;4.33;2.70;;;;;;;;;;4988621;28;20027;-77
2021/05/28 03:47:09;;;;;;;3.27;2.10;;;;;;;;;;4989546;28;20069;-78
2021/05/28 03:49:35;;;;;;;4.07;2.83;;;;;;;;;;4988674;28;20045;-77
2021/05/28 03:52:01;;;;;;;3.17;2.50;;;;;;;;;;4989412;28;20038;-79
2021/05/28 03:54:27;;;;;;;2.60;2.17;;;;;;;;;;4971917;28;20034;-77
2021/05/28 03:56:52;;;;;;;2.90;2.60;;;;;;;;;;4988160;28;20031;-77
2021/05/28 03:59:18;;;;;;;5.23;2.33;;;;;;;;;;4988120;28;20045;-77
2021/05/28 04:01:43;;;;;;;2.97;2.67;;;;;;;;;;4989790;28;20030;-78
2021/05/28 04:04:09;;;;;;;3.13;2.30;;;;;;;;;;4993104;28;20038;-78
2021/05/28 04:06:34;;;;;;;8.77;3.10;;;;;;;;;;4991889;28;20120;-78
2021/05/28 04:09:02;;;;;;;7.33;2.47;;;;;;;;;;4993202;28;20026;-78
2021/05/28 04:11:27;;;;;;;4.90;2.10;;;;;;;;;;4991231;28;20030;-77
2021/05/28 04:13:53;;;;;;;2.17;1.97;;;;;;;;;;4991582;28;20149;-77
2021/05/28 04:16:18;;;;;;;3.60;2.67;;;;;;;;;;4992638;28;20042;-77
2021/05/28 04:18:44;;;;;;;8.30;3.90;;;;;;;;;;4991524;28;20034;-78
2021/05/28 04:21:10;;;;;;;7.40;2.90;;;;;;;;;;4992760;28;20034;-77
2021/05/28 04:23:35;;;;;;;5.40;2.67;;;;;;;;;;4993063;28;20426;-77
2021/05/28 04:26:01;;;;;;;5.80;2.90;;;;;;;;;;4991591;28;20023;-76
2021/05/28 04:28:28;;;;;;;2.53;2.30;;;;;;;;;;4991719;28;20125;-78
2021/05/28 04:30:55;;;;;;;4.23;3.00;;;;;;;;;;4992934;28;20038;-80
2021/05/28 04:33:21;;;;;;;5.47;2.83;;;;;;;;;;4993216;28;20034;-76
2021/05/28 04:35:46;;;;;;;3.23;2.53;;;;;;;;;;4991296;28;20524;-77
2021/05/28 04:38:12;;;;;;;4.73;2.60;;;;;;;;;;4990993;28;20531;-78
2021/05/28 04:40:37;;;;;;;5.53;2.47;;;;;;;;;;4991285;28;20038;-77
2021/05/28 04:43:03;;;;;;;5.80;2.83;;;;;;;;;;4992578;28;20406;-77
2021/05/28 04:45:29;;;;;;;5.03;2.93;;;;;;;;;;4990670;28;20038;-78
2021/05/28 04:47:54;;;;;;;3.20;2.43;;;;;;;;;;4992557;28;20046;-77
2021/05/28 04:50:20;;;;;;;3.40;2.97;;;;;;;;;;4992691;28;20043;-78
2021/05/28 04:52:46;;;;;;;6.20;3.63;;;;;;;;;;4991058;28;20026;-77
2021/05/28 04:55:14;;;;;;;3.10;2.50;;;;;;;;;;4991942;28;20109;-78
2021/05/28 04:57:40;;;;;;;3.40;2.30;;;;;;;;;;4992357;28;20037;-79
2021/05/28 05:00:08;;;;;;;4.50;2.83;;;;;;;;;;4990722;28;20038;-78
2021/05/28 05:02:34;;;;;;;2.97;2.50;;;;;;;;;;4990864;28;20022;-80
2021/05/28 05:04:59;;;;;;;5.67;3.37;;;;;;;;;;4990939;28;20037;-78
2021/05/28 05:07:25;;;;;;;7.63;3.13;;;;;;;;;;4992581;28;20596;-78
2021/05/28 05:09:50;;;;;;;3.13;2.60;;;;;;;;;;4977481;28;20451;-78
2021/05/28 05:12:16;;;;;;;4.57;2.77;;;;;;;;;;4978655;28;20034;-77
2021/05/28 05:14:41;;;;;;;5.07;2.80;;;;;;;;;;4983226;28;20085;-77
2021/05/28 05:17:07;;;;;;;4.47;2.67;;;;;;;;;;4971891;28;20125;-76
2021/05/28 05:19:32;;;;;;;4.87;3.07;;;;;;;;;;4980333;28;20038;-77
2021/05/28 05:21:58;;;;;;;3.87;2.53;;;;;;;;;;4989682;28;20080;-77
2021/05/28 05:24:23;;;;;;;4.73;2.70;;;;;;;;;;4990160;28;20110;-75
2021/05/28 05:26:49;;;;;;;4.20;2.97;;;;;;;;;;4989895;28;20108;-76
2021/05/28 05:29:15;;;;;;;7.23;3.80;;;;;;;;;;4990964;28;20398;-80
2021/05/28 05:31:41;;;;;;;3.80;3.07;;;;;;;;;;4973877;28;20026;-78
2021/05/28 05:34:07;;;;;;;6.37;2.80;;;;;;;;;;4991427;28;20085;-77
2021/05/28 05:36:35;;;;;;;4.40;3.03;;;;;;;;;;5001260;28;20076;-77
2021/05/28 05:39:01;;;;;;;6.63;2.90;;;;;;;;;;5009299;28;20109;-76
2021/05/28 05:41:27;;;;;;;4.50;3.17;;;;;;;;;;4992453;28;20101;-77
2021/05/28 05:43:52;;;;;;;3.87;3.10;;;;;;;;;;4990200;28;20121;-77
2021/05/28 05:46:18;;;;;;;8.90;4.90;;;;;;;;;;4989929;28;20029;-76
2021/05/28 05:48:43;;;;;;;4.00;3.03;;;;;;;;;;4989552;28;20073;-77
2021/05/28 05:51:09;;;;;;;3.80;2.60;;;;;;;;;;4985855;28;20139;-75
2021/05/28 05:53:34;;;;;;;5.90;3.07;;;;;;;;;;4976958;28;20526;-76
2021/05/28 05:56:01;;;;;;;4.60;3.00;;;;;;;;;;4979444;28;20041;-76
2021/05/28 05:58:26;;;;;;;6.53;3.93;;;;;;;;;;4979888;28;20034;-77
2021/05/28 06:00:52;;;;;;;7.33;4.40;;;;;;;;;;4988715;28;20115;-77
2021/05/28 06:03:17;;;;;;;4.10;2.83;;;;;;;;;;4985008;28;20077;-77
2021/05/28 06:05:44;;;;;;;3.53;2.80;;;;;;;;;;4992112;28;20029;-77
2021/05/28 06:08:10;;;;;;;6.40;3.07;;;;;;;;;;5004188;28;20482;-76
2021/05/28 06:10:35;;;;;;;4.60;3.10;;;;;;;;;;5003985;28;20088;-77
2021/05/28 06:13:06;;;;;;;4.67;2.67;;;;;;;;;;5007666;28;20053;-77
2021/05/28 06:15:31;;;;;;;3.83;3.07;;;;;;;;;;5006036;28;20152;-74
2021/05/28 06:17:57;;;;;;;3.87;2.80;;;;;;;;;;5008100;28;20482;-76
2021/05/28 06:20:23;;;;;;;5.80;2.50;;;;;;;;;;5006967;28;20025;-76
2021/05/28 06:22:49;;;;;;;4.20;2.67;;;;;;;;;;5004708;28;20074;-77
2021/05/28 06:25:17;;;;;;;3.67;2.60;;;;;;;;;;4979733;28;20060;-78
2021/05/28 06:27:42;;;;;;;6.13;2.20;;;;;;;;;;4988658;28;20037;-77
2021/05/28 06:30:09;;;;;;;6.22;3.20;;;;;;;;;;4976394;28;20034;-77
2021/05/28 06:32:35;;;;;;;4.53;2.35;;;;;;;;;;4989062;28;20038;-77
2021/05/28 06:35:00;;;;;;;8.57;2.50;;;;;;;;;;5001059;28;20041;-76
2021/05/28 06:37:26;;;;;;;9.38;3.50;;;;;;;;;;4992529;28;20029;-77
2021/05/28 06:39:51;;;;;;;3.33;2.53;;;;;;;;;;5006066;28;20121;-76
2021/05/28 06:42:17;;;;;;;4.78;2.28;;;;;;;;;;4994985;28;20058;-76
2021/05/28 06:44:42;;;;;;;5.55;2.72;;;;;;;;;;5006288;28;20040;-76
2021/05/28 06:47:08;;;;;;;3.08;2.45;;;;;;;;;;4978150;28;20490;-77
2021/05/28 06:49:34;;;;;;;2.92;2.15;;;;;;;;;;4997726;28;20038;-76
2021/05/28 06:52:00;;;;;;;6.82;2.80;;;;;;;;;;4985269;28;20537;-76
2021/05/28 06:54:26;;;;;;;4.95;2.40;;;;;;;;;;5016444;28;20034;-76
2021/05/28 06:56:51;;;;;;;6.72;2.83;;;;;;;;;;4979674;28;20030;-77
2021/05/28 06:59:17;;;;;;;4.75;2.47;;;;;;;;;;4979791;28;20034;-76
2021/05/28 07:01:42;;;;;;;3.70;2.47;;;;;;;;;;4981238;28;20030;-76
2021/05/28 07:04:08;;;;;;;3.13;2.20;;;;;;;;;;4964758;28;20049;-77
2021/05/28 07:06:34;;;;;;;5.70;2.40;;;;;;;;;;4965251;28;20120;-76
2021/05/28 07:09:00;;;;;;;3.00;2.20;;;;;;;;;;4981071;28;20070;-77
2021/05/28 07:11:26;;;;;;;3.90;2.08;;;;;;;;;;4981830;28;20042;-78
2021/05/28 07:13:53;;;;;;;2.22;2.08;;;;;;;;;;4988703;28;20030;-76
2021/05/28 07:16:18;;;;;;;3.60;1.95;;;;;;;;;;4980723;28;20440;-76
2021/05/28 07:18:44;;;;;;;6.03;1.98;;;;;;;;;;4962850;28;20092;-78
2021/05/28 07:21:10;;;;;;;3.55;2.40;;;;;;;;;;4983095;28;20069;-77
2021/05/28 07:23:35;;;;;;;2.75;1.77;;;;;;;;;;4981202;28;20042;-76
2021/05/28 07:26:02;;;;;;;3.20;2.05;;;;;;;;;;5000957;28;20503;-78
2021/05/28 07:28:29;;;;;;;6.82;1.98;;;;;;;;;;4982597;28;20030;-76
2021/05/28 07:30:55;;;;;;;2.20;2.00;;;;;;;;;;4994932;28;20388;-78
2021/05/28 07:33:20;;;;;;;3.58;2.13;;;;;;;;;;4999739;28;20089;-77
2021/05/28 07:35:47;;;;;;;2.65;1.77;;;;;;;;;;4944592;28;20143;-77
2021/05/28 07:38:13;;;;;;;2.35;2.13;;;;;;;;;;4966144;28;20121;-76
2021/05/28 07:40:40;;;;;;;4.03;2.20;;;;;;;;;;4968086;28;20686;-77
2021/05/28 07:43:06;;;;;;;2.33;1.85;;;;;;;;;;4963293;28;20082;-77
2021/05/28 07:45:33;;;;;;;2.00;1.67;;;;;;;;;;4963442;28;20121;-76
2021/05/28 07:47:59;;;;;;;2.55;1.88;;;;;;;;;;4965133;28;20452;-79
2021/05/28 07:50:25;;;;;;;5.53;1.80;;;;;;;;;;4960215;28;20042;-76
2021/05/28 07:52:51;;;;;;;4.65;1.45;;;;;;;;;;4961004;28;20702;-77
2021/05/28 07:55:17;;;;;;;2.38;1.42;;;;;;;;;;4959443;28;20043;-74
2021/05/28 07:57:43;;;;;;;3.17;1.95;;;;;;;;;;4964940;28;20034;-78
2021/05/28 08:00:10;;;;;;;5.35;1.98;;;;;;;;;;4959660;28;20070;-76
2021/05/28 08:02:37;;;;;;;2.97;1.42;;;;;;;;;;4960959;28;20041;-77
2021/05/28 08:05:06;;;;;;;1.52;1.20;;;;;;;;;;4967448;28;20030;-78
2021/05/28 08:07:33;;;;;;;1.70;1.58;;;;;;;;;;4964652;28;20381;-76
2021/05/28 08:10:01;;;;;;;3.90;1.30;;;;;;;;;;4969682;28;20043;-77
2021/05/28 08:12:27;;;;;;;4.40;1.73;;;;;;;;;;4972585;28;20042;-76
2021/05/28 08:14:53;;;;;;;2.65;1.50;;;;;;;;;;4969122;28;20059;-77
2021/05/28 08:17:20;;;;;;;2.30;1.80;;;;;;;;;;4978405;28;20146;-77
2021/05/28 08:19:47;;;;;;;4.57;1.73;;;;;;;;;;4974051;28;20030;-78
2021/05/28 08:22:17;;;;;;;4.13;1.80;;;;;;;;;;4967035;28;20057;-77
2021/05/28 08:24:43;;;;;;;2.80;1.65;;;;;;;;;;4967463;28;20027;-78
2021/05/28 08:27:09;;;;;;;2.13;1.60;;;;;;;;;;4964217;28;20037;-77
2021/05/28 08:29:36;;;;;;;2.03;1.50;;;;;;;;;;4971005;28;20034;-81
2021/05/28 08:32:02;;;;;;;4.30;2.15;;;;;;;;;;4955319;28;20034;-78
2021/05/28 08:34:28;;;;;;;1.80;1.00;;;;;;;;;;4957793;28;20121;-78
2021/05/28 08:36:55;;;;;;;1.95;1.20;;;;;;;;;;4943986;28;20503;-77
2021/05/28 08:39:21;;;;;;;3.22;1.20;;;;;;;;;;4961027;28;20503;-75
2021/05/28 08:41:50;;;;;;;2.97;1.52;;;;;;;;;;4962042;28;20039;-75
2021/05/28 08:44:27;;;;;;;0.90;0.88;;;;;;;;;;4963143;28;20118;-78
2021/05/28 08:46:55;;;;;;;2.25;1.23;;;;;;;;;;4962844;28;20037;-76
2021/05/28 08:49:22;;;;;;;2.28;1.00;;;;;;;;;;4968295;28;20060;-75
2021/05/28 08:51:48;;;;;;;1.83;1.25;;;;;;;;;;4963716;28;20094;-76
2021/05/28 08:54:19;;;;;;;1.50;1.40;;;;;;;;;;4971988;28;20027;-76
2021/05/28 08:56:48;;;;;;;;;;;;;;;;;;4964128;28;20178;-77
2021/05/28 08:59:14;;;;;;;1.98;1.00;;;;;;;;;;4965990;28;20267;-75
2021/05/28 09:01:40;;;;;;;1.40;1.17;;;;;;;;;;4964085;28;20487;-76
2021/05/28 09:04:07;;;;;;;2.38;1.35;;;;;;;;;;4967962;28;20546;-75
2021/05/28 09:06:43;;;;;;;2.30;2.10;;;;;;;;;;4963854;28;20058;-76
2021/05/28 09:09:13;;;;;;;3.97;1.90;;;;;;;;;;4978643;28;20139;-77
2021/05/28 09:11:56;;;;;;;2.70;1.75;;;;;;;;;;4963718;28;20042;-75
2021/05/28 09:14:43;;;;;;;1.45;1.33;;;;;;;;;;4963705;28;20035;-75
2021/05/28 09:17:11;;;;;;;3.35;1.40;;;;;;;;;;4965737;28;20031;-76
2021/05/28 09:19:39;;;;;;;2.25;1.42;;;;;;;;;;4966625;28;20037;-76
2021/05/28 09:22:08;;;;;;;1.65;1.20;;;;;;;;;;4966000;28;20542;-77
2021/05/28 09:24:36;;;;;;;3.75;2.10;;;;;;;;;;4963129;28;20038;-74
2021/05/28 09:27:26;;;;;;;3.78;2.72;;;;;;;;;;4974344;28;20528;-77
2021/05/28 09:30:12;;;;;;;2.03;1.08;;;;;;;;;;4962108;28;20085;-76
2021/05/28 09:32:44;;;;;;;1.50;0.95;;;;;;;;;;4964178;28;20641;-76
2021/05/28 09:35:22;;;;;;;2.58;1.30;;;;;;;;;;4965288;28;20839;-76
2021/05/28 09:37:53;;;;;;;1.73;1.40;;;;;;;;;;4959129;28;20042;-75
2021/05/28 09:40:30;;;;;;;4.05;1.58;;;;;;;;;;4948695;28;20043;-76
2021/05/28 09:43:04;;;;;;;1.40;1.25;;;;;;;;;;4944594;28;20058;-75
2021/05/28 09:45:40;;;;;;;2.85;1.30;;;;;;;;;;4966836;28;20051;-77
2021/05/28 09:48:15;;;;;;;1.48;1.20;;;;;;;;;;4963661;28;20110;-76
2021/05/28 09:50:49;;;;;;;4.43;1.40;;;;;;;;;;4964112;28;20501;-76
2021/05/28 09:53:39;;;;;;;2.53;1.02;;;;;;;;;;4965599;28;20033;-76
2021/05/28 09:56:29;;;;;;;3.53;1.80;;;;;;;;;;4981600;28;20031;-74
2021/05/28 09:58:55;;;;;;;2.78;2.10;;;;;;;;;;4970126;28;20023;-73
2021/05/28 10:01:21;;;;;;;5.38;1.95;;;;;;;;;;4965983;28;20039;-74
2021/05/28 10:04:00;;;;;;;2.65;2.20;;;;;;;;;;4965499;28;20677;-76
2021/05/28 10:06:29;;;;;;;3.03;2.05;;;;;;;;;;4965952;28;20567;-77
2021/05/28 10:09:00;;;;;;;1.73;1.50;;;;;;;;;;4979701;28;20672;-75
2021/05/28 10:11:26;;;;;;;1.90;1.60;;;;;;;;;;4964596;28;20093;-78
2021/05/28 10:13:54;;;;;;;1.70;1.20;;;;;;;;;;4961434;28;20522;-74
2021/05/28 10:16:22;;;;;;;1.92;1.30;;;;;;;;;;4961876;28;20039;-75
2021/05/28 10:18:49;;;;;;;3.33;1.58;;;;;;;;;;4967143;28;20045;-74
2021/05/28 10:21:15;;;;;;;2.78;1.48;;;;;;;;;;4961634;28;20113;-76
2021/05/28 10:23:40;;;;;;;2.28;1.50;;;;;;;;;;4965841;28;20138;-76
2021/05/28 10:26:06;;;;;;;1.75;1.30;;;;;;;;;;4960495;28;20021;-77
2021/05/28 10:28:34;;;;;;;1.70;1.23;;;;;;;;;;4944110;28;20050;-75
2021/05/28 10:31:00;;;;;;;4.07;1.50;;;;;;;;;;4966985;28;20043;-76
2021/05/28 10:33:27;;;;;;;1.33;1.10;;;;;;;;;;4961881;28;20514;-75
2021/05/28 10:35:57;;;;;;;2.08;1.02;;;;;;;;;;4961927;28;20118;-74
2021/05/28 10:38:32;;;;;;;1.38;1.27;;;;;;;;;;4964801;28;20037;-74
2021/05/28 10:41:00;;;;;;;1.63;1.52;;;;;;;;;;4967428;28;20073;-75
2021/05/28 10:43:27;;;;;;;2.72;2.25;;;;;;;;;;4959720;28;20051;-76
2021/05/28 10:46:19;;;;;;;1.90;1.55;;;;;;;;;;4962990;28;20035;-74
2021/05/28 10:48:48;;;;;;;;;;;;;;;;;;4964308;28;20065;-75
2021/05/28 10:51:43;;;;;;;1.40;1.30;;;;;;;;;;4961764;28;19924;-77
2021/05/28 10:54:09;;;;;;;1.20;1.10;;;;;;;;;;4962115;28;20031;-76
2021/05/28 10:56:38;;;;;;;3.03;1.63;;;;;;;;;;4965471;28;20046;-75
2021/05/28 10:59:18;;;;;;;2.10;1.85;;;;;;;;;;4972784;28;20085;-75
2021/05/28 11:01:57;;;;;;;2.13;1.40;;;;;;;;;;4957757;28;20090;-75
2021/05/28 11:04:44;;;;;;;3.70;1.85;;;;;;;;;;4973633;28;20039;-76
2021/05/28 11:07:11;;;;;;;1.77;1.00;;;;;;;;;;4964458;28;20073;-74
2021/05/28 11:09:46;;;;;;;1.95;1.10;;;;;;;;;;4971509;28;20546;-74
2021/05/28 11:12:14;;;;;;;1.98;1.15;;;;;;;;;;4972808;28;20031;-76
2021/05/28 11:15:08;;;;;;;1.10;1.00;;;;;;;;;;4967202;28;20083;-73
2021/05/28 11:17:51;;;;;;;1.77;0.82;;;;;;;;;;4971414;28;20085;-76
2021/05/28 11:20:40;;;;;;;2.13;1.00;;;;;;;;;;4967059;28;20031;-75
2021/05/28 11:23:14;;;;;;;2.38;1.02;;;;;;;;;;4963537;28;20031;-75
2021/05/28 11:25:48;;;;;;;1.40;0.70;;;;;;;;;;4976138;28;20106;-74
2021/05/28 11:28:15;;;;;;;1.52;0.88;;;;;;;;;;4967486;28;20129;-75
2021/05/28 11:30:48;;;;;;;1.92;1.10;;;;;;;;;;4956637;28;20038;-74
2021/05/28 11:33:32;;;;;;;1.42;0.95;;;;;;;;;;4961149;28;20063;-76
2021/05/28 11:36:18;;;;;;;1.80;0.90;;;;;;;;;;4960325;28;20550;-76
2021/05/28 11:38:44;;;;;;;1.17;1.08;;;;;;;;;;4960968;28;20031;-75
2021/05/28 11:41:10;;;;;;;3.17;1.90;;;;;;;;;;4964438;28;20031;-75
2021/05/28 11:43:36;;;;;;;1.30;1.20;;;;;;;;;;4963522;28;20042;-77
2021/05/28 11:46:02;;;;;;;1.15;1.02;;;;;;;;;;4946699;28;20041;-75
2021/05/28 11:48:28;;;;;;;2.25;1.55;;;;;;;;;;4956102;28;20134;-77
2021/05/28 11:50:55;;;;;;;1.33;1.00;;;;;;;;;;4963309;28;20038;-75
2021/05/28 11:53:22;;;;;;;2.85;1.00;;;;;;;;;;4962248;28;20039;-74
2021/05/28 11:55:55;;;;;;;1.48;0.80;;;;;;;;;;4962754;28;20058;-76
2021/05/28 11:58:31;;;;;;;2.15;1.17;;;;;;;;;;4946642;28;20039;-74
2021/05/28 12:00:58;;;;;;;1.48;1.00;;;;;;;;;;4961318;28;20031;-76
2021/05/28 12:03:25;;;;;;;1.50;1.27;;;;;;;;;;4960233;28;20065;-76
2021/05/28 12:05:52;;;;;;;1.85;1.30;;;;;;;;;;4948111;28;20057;-76
2021/05/28 12:08:26;;;;;;;2.42;1.15;;;;;;;;;;4964315;28;20069;-76
2021/05/28 12:11:00;;;;;;;1.10;1.00;;;;;;;;;;4960121;28;20153;-75
2021/05/28 12:13:36;;;;;;;1.98;1.00;;;;;;;;;;4960599;28;20081;-75
2021/05/28 12:16:05;;;;;;;1.92;0.90;;;;;;;;;;4944290;28;20038;-76
2021/05/28 12:18:35;;;;;;;1.77;1.50;;;;;;;;;;4964177;28;20489;-76
2021/05/28 12:21:13;;;;;;;4.25;1.40;;;;;;;;;;4960305;28;20035;-76
2021/05/28 12:23:50;;;;;;;0.77;0.70;;;;;;;;;;4966474;28;20026;-76
2021/05/28 12:26:31;;;;;;;4.07;2.22;;;;;;;;;;4960980;28;20617;-79
2021/05/28 12:29:02;;;;;;;3.40;1.05;;;;;;;;;;4962905;28;20035;-76
2021/05/28 12:31:28;;;;;;;;;;;;;;;;;;4966643;28;20030;-76
2021/05/28 12:33:58;;;;;;;3.22;0.70;;;;;;;;;;4978182;28;19918;-76
2021/05/28 12:36:34;;;;;;;1.00;1.00;;;;;;;;;;4961152;28;20031;-76
2021/05/28 12:39:04;;;;;;;3.67;1.15;;;;;;;;;;4970256;28;20042;-75
2021/05/28 12:41:33;;;;;;;0.80;0.80;;;;;;;;;;4962068;28;20530;-76
2021/05/28 12:44:01;;;;;;;2.30;1.20;;;;;;;;;;4965053;28;20564;-76
2021/05/28 12:46:35;;;;;;;0.93;0.77;;;;;;;;;;4960158;28;20093;-75
2021/05/28 12:49:11;;;;;;;3.08;1.95;;;;;;;;;;4962245;28;20058;-77
2021/05/28 12:51:45;;;;;;;2.35;1.35;;;;;;;;;;4962973;28;20031;-76
2021/05/28 12:54:14;;;;;;;2.67;1.00;;;;;;;;;;4969011;28;20136;-77
2021/05/28 12:56:40;;;;;;;1.65;1.25;;;;;;;;;;4959028;28;20110;-75
2021/05/28 12:59:37;;;;;;;1.40;1.27;;;;;;;;;;4965089;28;20539;-76
2021/05/28 13:02:14;;;;;;;1.40;1.30;;;;;;;;;;4964630;28;20039;-76
2021/05/28 13:04:53;;;;;;;3.22;1.00;;;;;;;;;;4964895;28;20038;-76
2021/05/28 13:07:36;;;;;;;1.23;1.13;;;;;;;;;;4964153;28;20039;-76
2021/05/28 13:10:21;;;;;;;2.78;0.90;;;;;;;;;;4976428;28;20030;-76
2021/05/28 13:12:46;;;;;;;2.30;1.20;;;;;;;;;;4967508;28;20046;-75
2021/05/28 13:15:17;;;;;;;1.75;1.10;;;;;;;;;;4962317;28;20026;-76
2021/05/28 13:18:01;;;;;;;1.85;1.00;;;;;;;;;;4965497;28;20027;-76
2021/05/28 13:20:27;;;;;;;3.10;1.40;;;;;;;;;;4964184;28;20125;-76
2021/05/28 13:22:54;;;;;;;2.20;1.17;;;;;;;;;;4969620;28;20114;-76
2021/05/28 13:25:51;;;;;;;2.65;1.13;;;;;;;;;;4965377;28;20040;-75
2021/05/28 13:28:23;;;;;;;2.10;1.15;;;;;;;;;;4968707;28;20120;-76
2021/05/28 13:30:50;;;;;;;1.48;1.38;;;;;;;;;;4963093;28;20704;-75
2021/05/28 13:33:24;;;;;;;2.25;1.20;;;;;;;;;;4964806;28;20059;-73
2021/05/28 13:36:01;;;;;;;3.33;1.40;;;;;;;;;;4964089;28;20089;-75
2021/05/28 13:38:27;;;;;;;1.10;1.10;;;;;;;;;;4964171;28;20054;-75
2021/05/28 13:40:53;;;;;;;1.80;1.23;;;;;;;;;;4976306;28;20038;-75
2021/05/28 13:43:20;;;;;;;1.30;1.20;;;;;;;;;;4959779;28;20062;-74
2021/05/28 13:45:49;;;;;;;2.33;1.20;;;;;;;;;;4972080;28;20100;-75
2021/05/28 13:48:20;;;;;;;6.05;1.60;;;;;;;;;;4962957;28;20027;-75
2021/05/28 13:50:47;;;;;;;3.15;1.95;;;;;;;;;;4964968;28;20868;-76
2021/05/28 13:53:17;;;;;;;1.63;1.30;;;;;;;;;;4962479;28;20047;-76
2021/05/28 13:55:43;;;;;;;3.25;1.50;;;;;;;;;;4963773;28;20066;-75
2021/05/28 13:58:11;;;;;;;2.22;2.03;;;;;;;;;;4962925;28;20033;-75
2021/05/28 14:00:38;;;;;;;1.70;1.60;;;;;;;;;;4964777;28;20093;-75
2021/05/28 14:03:05;;;;;;;2.63;1.67;;;;;;;;;;4947527;28;20447;-76
2021/05/28 14:05:32;;;;;;;2.00;1.70;;;;;;;;;;4962736;28;20038;-75
2021/05/28 14:07:58;;;;;;;3.10;1.58;;;;;;;;;;4966045;28;20037;-76
2021/05/28 14:10:25;;;;;;;2.03;1.58;;;;;;;;;;4952792;28;20402;-75
2021/05/28 14:12:51;;;;;;;1.98;1.70;;;;;;;;;;4958763;28;20039;-76
2021/05/28 14:15:18;;;;;;;4.90;1.95;;;;;;;;;;4972765;28;20070;-74
2021/05/28 14:17:44;;;;;;;2.80;1.50;;;;;;;;;;4954607;28;20043;-76
2021/05/28 14:20:10;;;;;;;1.90;1.50;;;;;;;;;;4961556;28;20030;-76
2021/05/28 14:22:37;;;;;;;1.58;1.40;;;;;;;;;;4965479;28;20403;-76
2021/05/28 14:25:06;;;;;;;2.08;1.88;;;;;;;;;;4977475;28;20137;-75
2021/05/28 14:27:31;;;;;;;1.85;1.75;;;;;;;;;;4971971;28;20030;-76
2021/05/28 14:29:57;;;;;;;2.15;1.42;;;;;;;;;;4985037;28;20387;-74
2021/05/28 14:32:26;;;;;;;2.85;1.30;;;;;;;;;;4981286;28;20376;-75
2021/05/28 14:34:52;;;;;;;4.30;1.58;;;;;;;;;;4982775;28;20053;-74
2021/05/28 14:37:18;;;;;;;1.40;1.27;;;;;;;;;;4971091;28;20066;-74
2021/05/28 14:39:45;;;;;;;2.45;1.40;;;;;;;;;;4973477;28;20399;-74
2021/05/28 14:42:11;;;;;;;5.13;1.80;;;;;;;;;;4964679;28;20424;-74
2021/05/28 14:44:37;;;;;;;1.48;1.38;;;;;;;;;;4971485;28;20046;-76
2021/05/28 14:47:03;;;;;;;2.60;1.50;;;;;;;;;;4972944;28;20031;-75
2021/05/28 14:49:29;;;;;;;4.32;2.10;;;;;;;;;;4980604;28;20495;-74